Time;durP1;ratioP1;P1;durP2;ratioP2;P2;SDS_P1;SDS_P2;PMS_P1;PMS_P2;Temp;Humidity;BMP_temperature;BMP_pressure;BME280_temperature;BME280_humidity;BME280_pressure;Samples;Min_cycle;Max_cycle;Signal;HPM_P1;HPM_P2
2023/07/22 00:02:24;;;;;;;8.47;4.70;;;;;;;18.66;71.14;99598.69;4205546;28;20240;-66
2023/07/22 00:04:52;;;;;;;8.00;4.60;;;;;;;18.68;70.18;99592.97;4207723;28;20231;-68
2023/07/22 00:07:18;;;;;;;8.67;5.07;;;;;;;18.65;70.46;99594.25;4203582;28;21027;-68
2023/07/22 00:09:45;;;;;;;5.97;4.90;;;;;;;18.47;71.75;99589.53;4206890;28;23793;-70
2023/07/22 00:12:12;;;;;;;12.50;5.50;;;;;;;18.41;73.18;99598.63;4208359;28;20263;-68
2023/07/22 00:14:40;;;;;;;6.57;4.87;;;;;;;18.40;73.43;99602.44;4209603;28;20604;-68
2023/07/22 00:17:07;;;;;;;9.53;5.57;;;;;;;18.33;74.78;99593.41;4205066;28;20558;-66
2023/07/22 00:19:34;;;;;;;8.73;5.73;;;;;;;18.21;75.08;99587.78;4209521;28;20236;-70
2023/07/22 00:22:01;;;;;;;9.63;6.53;;;;;;;18.26;75.33;99589.88;4214473;28;20229;-71
2023/07/22 00:24:28;;;;;;;8.67;5.60;;;;;;;18.23;75.95;99587.56;4203077;28;20244;-66
2023/07/22 00:26:55;;;;;;;8.63;5.63;;;;;;;18.13;76.93;99577.91;4205857;28;25396;-68
2023/07/22 00:29:22;;;;;;;12.27;6.17;;;;;;;18.05;78.04;99578.19;4208041;28;26120;-67
2023/07/22 00:31:49;;;;;;;9.77;5.63;;;;;;;18.04;79.26;99587.44;4207937;28;21317;-67
2023/07/22 00:34:16;;;;;;;10.30;6.07;;;;;;;17.99;80.25;99584.50;4207064;28;20792;-68
2023/07/22 00:36:44;;;;;;;9.60;6.10;;;;;;;18.04;79.30;99584.72;4207095;28;20266;-69
2023/07/22 00:39:13;;;;;;;8.33;6.03;;;;;;;18.08;77.28;99585.13;4206294;28;20256;-65
2023/07/22 00:41:42;;;;;;;9.13;5.90;;;;;;;17.99;78.92;99573.53;4207701;28;21844;-68
2023/07/22 00:44:09;;;;;;;8.03;6.30;;;;;;;17.98;77.01;99578.19;4200811;28;20240;-69
2023/07/22 00:46:35;;;;;;;10.07;5.70;;;;;;;18.12;76.37;99572.66;4206668;28;20415;-67
2023/07/22 00:49:02;;;;;;;9.70;6.10;;;;;;;18.09;77.75;99584.06;4217359;28;22332;-68
2023/07/22 00:51:28;;;;;;;12.93;6.53;;;;;;;18.01;78.53;99585.97;4205747;28;20409;-68
2023/07/22 00:53:55;;;;;;;7.70;5.70;;;;;;;18.01;77.29;99583.22;4211352;28;20248;-65
2023/07/22 00:56:22;;;;;;;12.27;5.90;;;;;;;18.14;75.47;99587.81;4212558;28;21530;-67
2023/07/22 00:58:49;;;;;;;10.57;6.07;;;;;;;18.13;75.87;99590.78;4206724;28;20346;-66
2023/07/22 01:01:15;;;;;;;8.70;5.60;;;;;;;18.20;75.42;99586.09;4209066;28;20250;-68
2023/07/22 01:03:43;;;;;;;9.07;5.87;;;;;;;18.26;75.22;99581.66;4208834;28;20228;-70
2023/07/22 01:06:10;;;;;;;8.53;6.20;;;;;;;18.24;75.21;99575.53;4208920;28;20232;-67
2023/07/22 01:08:39;;;;;;;8.50;6.00;;;;;;;18.36;75.10;99566.41;4206106;28;25891;-67
2023/07/22 01:11:06;;;;;;;7.47;6.00;;;;;;;18.28;75.77;99568.56;4217067;28;23282;-70
2023/07/22 01:13:32;;;;;;;11.90;6.90;;;;;;;18.08;78.20;99564.03;4218984;28;20580;-67
2023/07/22 01:15:59;;;;;;;7.23;6.03;;;;;;;18.16;77.08;99560.22;4208291;28;21589;-69
2023/07/22 01:18:26;;;;;;;9.53;6.30;;;;;;;18.11;77.12;99557.28;4202773;28;20237;-69
2023/07/22 01:20:53;;;;;;;9.80;6.80;;;;;;;17.83;79.01;99544.75;4222541;28;21250;-69
2023/07/22 01:23:19;;;;;;;9.40;6.67;;;;;;;17.79;79.41;99544.34;4209346;28;21581;-66
2023/07/22 01:25:46;;;;;;;9.63;6.80;;;;;;;17.71;79.92;99541.84;4198774;28;20300;-66
2023/07/22 01:28:13;;;;;;;10.00;6.80;;;;;;;17.68;80.30;99540.38;4210193;28;20236;-69
2023/07/22 01:30:39;;;;;;;10.63;7.27;;;;;;;17.68;80.35;99534.91;4209298;28;21641;-66
2023/07/22 01:33:06;;;;;;;9.17;7.17;;;;;;;17.84;79.55;99533.56;4208276;28;21427;-67
2023/07/22 01:35:33;;;;;;;10.00;7.03;;;;;;;17.92;78.54;99537.09;4210779;28;20382;-69
2023/07/22 01:38:00;;;;;;;11.73;7.10;;;;;;;17.97;77.70;99540.91;4211949;28;21700;-67
2023/07/22 01:40:26;;;;;;;15.93;7.80;;;;;;;17.87;78.63;99533.13;4206421;28;20245;-67
2023/07/22 01:42:53;;;;;;;9.53;7.17;;;;;;;17.90;78.41;99531.84;4208952;28;20239;-69
2023/07/22 01:45:19;;;;;;;11.87;6.90;;;;;;;18.05;76.76;99526.16;4212019;28;20237;-67
2023/07/22 01:47:46;;;;;;;9.50;6.67;;;;;;;17.98;76.96;99522.56;4209503;28;22892;-67
2023/07/22 01:50:13;;;;;;;11.77;7.03;;;;;;;17.88;77.46;99525.75;4210014;28;21261;-67
2023/07/22 01:52:39;;;;;;;9.20;6.93;;;;;;;17.98;76.65;99515.22;4214973;28;20229;-67
2023/07/22 01:55:10;;;;;;;16.47;7.80;;;;;;;18.04;76.67;99529.94;4221152;28;20241;-66
2023/07/22 01:57:39;;;;;;;8.10;6.90;;;;;;;18.11;76.40;99528.00;4208770;28;20367;-70
2023/07/22 02:00:07;;;;;;;11.40;7.57;;;;;;;18.01;76.68;99524.88;4207692;28;20238;-67
2023/07/22 02:02:34;;;;;;;9.93;7.20;;;;;;;18.01;76.79;99533.09;4207130;28;20228;-67
2023/07/22 02:05:01;;;;;;;10.23;6.80;;;;;;;17.93;77.23;99538.78;4211321;28;20245;-65
2023/07/22 02:07:29;;;;;;;11.00;7.07;;;;;;;17.94;77.33;99537.75;4209742;28;20724;-67
2023/07/22 02:09:56;;;;;;;15.30;7.87;;;;;;;17.76;77.89;99531.06;4210765;28;22740;-67
2023/07/22 02:12:22;;;;;;;12.23;8.23;;;;;;;17.39;80.83;99537.09;4208338;28;20404;-69
2023/07/22 02:14:49;;;;;;;11.37;7.67;;;;;;;17.35;81.10;99537.75;4207736;28;20241;-65
2023/07/22 02:17:16;;;;;;;8.97;6.93;;;;;;;17.30;81.26;99540.25;4210716;28;20328;-68
2023/07/22 02:19:43;;;;;;;13.43;8.47;;;;;;;17.25;81.18;99543.66;4209141;28;20250;-67
2023/07/22 02:22:10;;;;;;;11.70;8.10;;;;;;;17.32;81.94;99549.09;4217080;28;21119;-69
2023/07/22 02:24:36;;;;;;;11.60;8.30;;;;;;;17.38;81.53;99534.56;4227568;28;20255;-67
2023/07/22 02:27:03;;;;;;;12.27;7.90;;;;;;;17.36;81.24;99553.09;4218281;28;20236;-70
2023/07/22 02:29:33;;;;;;;10.73;7.93;;;;;;;17.32;82.13;99539.03;4216523;28;20416;-67
2023/07/22 02:31:59;;;;;;;12.37;9.10;;;;;;;17.11;83.08;99546.41;4217933;28;22667;-67
2023/07/22 02:34:26;;;;;;;16.67;8.90;;;;;;;16.95;84.25;99538.66;4209503;28;20236;-66
2023/07/22 02:36:52;;;;;;;17.37;9.33;;;;;;;16.94;84.45;99531.50;4215544;28;20295;-67
2023/07/22 02:39:19;;;;;;;13.27;9.60;;;;;;;17.14;82.98;99526.00;4209870;28;21312;-66
2023/07/22 02:41:45;;;;;;;13.77;9.43;;;;;;;17.06;83.30;99521.59;4199649;28;21179;-68
2023/07/22 02:44:12;;;;;;;10.73;8.50;;;;;;;17.26;82.43;99529.75;4213275;28;20240;-68
2023/07/22 02:46:39;;;;;;;13.23;9.57;;;;;;;17.33;82.07;99526.16;4210701;28;22588;-68
2023/07/22 02:49:06;;;;;;;14.00;9.70;;;;;;;17.31;82.26;99511.84;4209349;28;20276;-67
2023/07/22 02:51:32;;;;;;;14.03;9.43;;;;;;;17.40;81.74;99518.78;4214729;28;21045;-67
2023/07/22 02:53:59;;;;;;;15.47;9.80;;;;;;;17.41;81.78;99515.81;4211292;28;22317;-70
2023/07/22 02:56:25;;;;;;;14.67;9.27;;;;;;;17.33;82.06;99516.09;4210252;28;23455;-70
2023/07/22 02:58:53;;;;;;;13.77;9.73;;;;;;;17.46;81.86;99522.56;4210676;28;20272;-69
2023/07/22 03:01:19;;;;;;;12.40;9.20;;;;;;;17.31;82.36;99518.19;4206243;28;23413;-66
2023/07/22 03:03:46;;;;;;;15.50;10.40;;;;;;;17.43;81.64;99524.66;4206364;28;23003;-66
2023/07/22 03:06:13;;;;;;;17.20;10.70;;;;;;;17.36;82.10;99523.84;4207973;28;20248;-66
2023/07/22 03:08:40;;;;;;;14.87;10.10;;;;;;;17.35;81.88;99530.38;4212403;28;20236;-69
2023/07/22 03:11:07;;;;;;;14.23;10.10;;;;;;;17.34;82.25;99523.22;4216404;28;25532;-66
2023/07/22 03:13:34;;;;;;;14.23;10.37;;;;;;;17.30;82.35;99511.03;4206187;28;22059;-68
2023/07/22 03:16:04;;;;;;;15.63;10.50;;;;;;;17.29;82.45;99512.06;4204233;28;22545;-69
2023/07/22 03:18:31;;;;;;;15.83;10.60;;;;;;;17.35;82.09;99508.47;4222796;28;20229;-69
2023/07/22 03:20:59;;;;;;;13.60;9.97;;;;;;;17.29;82.23;99497.56;4254208;28;20314;-68
2023/07/22 03:23:26;;;;;;;13.10;10.30;;;;;;;17.32;82.56;99511.66;4255915;28;20372;-68
2023/07/22 03:25:53;;;;;;;14.00;10.47;;;;;;;17.31;82.67;99515.44;4244714;28;20237;-69
2023/07/22 03:28:20;;;;;;;15.13;10.30;;;;;;;17.33;82.43;99512.50;4243213;28;26176;-67
2023/07/22 03:30:46;;;;;;;16.43;10.40;;;;;;;17.31;82.49;99526.38;4248447;28;20246;-68
2023/07/22 03:33:14;;;;;;;20.63;10.93;;;;;;;17.17;83.42;99516.53;4267854;28;20248;-66
2023/07/22 03:35:41;;;;;;;13.80;9.70;;;;;;;17.33;82.77;99515.22;4248777;28;20268;-70
2023/07/22 03:38:08;;;;;;;18.93;10.97;;;;;;;17.36;83.04;99520.28;4230878;28;22184;-68
2023/07/22 03:40:35;;;;;;;13.57;10.30;;;;;;;17.56;82.21;99518.31;4237291;28;20227;-68
2023/07/22 03:43:02;;;;;;;15.83;10.00;;;;;;;17.68;81.30;99517.63;4222660;28;20236;-68
2023/07/22 03:45:28;;;;;;;12.97;9.50;;;;;;;17.58;82.42;99526.31;4229438;28;20225;-69
2023/07/22 03:47:59;;;;;;;13.57;9.87;;;;;;;17.66;82.16;99531.53;4217412;28;20242;-70
2023/07/22 03:50:27;;;;;;;15.30;10.43;;;;;;;17.57;82.71;99532.81;4211508;28;20228;-67
2023/07/22 03:52:54;;;;;;;12.90;10.73;;;;;;;17.40;83.51;99540.66;4215874;28;20224;-69
2023/07/22 03:55:21;;;;;;;12.67;9.90;;;;;;;17.41;83.05;99534.16;4223545;28;20609;-68
2023/07/22 03:57:47;;;;;;;14.17;9.37;;;;;;;17.48;82.79;99534.13;4206803;28;20296;-69
2023/07/22 04:00:14;;;;;;;13.43;10.13;;;;;;;17.30;83.79;99535.66;4220786;28;20778;-69
2023/07/22 04:02:41;;;;;;;12.40;8.90;;;;;;;17.45;83.39;99531.81;4217358;28;20306;-67
2023/07/22 04:05:08;;;;;;;13.37;8.77;;;;;;;17.63;82.56;99533.88;4212413;28;20290;-70
2023/07/22 04:07:35;;;;;;;11.60;9.10;;;;;;;17.69;82.29;99535.72;4232438;28;20720;-68
2023/07/22 04:10:02;;;;;;;16.07;9.80;;;;;;;17.55;83.31;99540.44;4205038;28;20237;-65
2023/07/22 04:12:29;;;;;;;15.27;10.13;;;;;;;17.51;83.19;99540.03;4212925;28;20307;-66
2023/07/22 04:14:56;;;;;;;18.77;11.00;;;;;;;17.31;84.31;99536.47;4200975;28;20256;-67
2023/07/22 04:17:23;;;;;;;15.77;10.73;;;;;;;17.21;84.99;99534.19;4207069;28;20236;-66
2023/07/22 04:19:51;;;;;;;14.53;9.73;;;;;;;17.29;84.81;99536.69;4212315;28;20317;-66
2023/07/22 04:22:19;;;;;;;14.10;10.87;;;;;;;17.26;85.19;99528.91;4208642;28;21072;-68
2023/07/22 04:24:48;;;;;;;15.53;9.63;;;;;;;17.29;85.16;99538.59;4210351;28;20238;-66
2023/07/22 04:27:16;;;;;;;12.77;9.93;;;;;;;17.17;85.92;99539.25;4240528;28;22391;-69
2023/07/22 04:29:42;;;;;;;15.43;10.00;;;;;;;17.12;85.89;99533.59;4216957;28;20303;-70
2023/07/22 04:32:09;;;;;;;14.20;10.20;;;;;;;17.06;86.72;99548.09;4207721;28;23575;-66
2023/07/22 04:34:35;;;;;;;13.20;11.10;;;;;;;16.97;87.15;99542.00;4202593;28;20651;-68
2023/07/22 04:37:02;;;;;;;18.97;11.90;;;;;;;16.95;87.83;99539.47;4224283;28;20235;-68
2023/07/22 04:39:29;;;;;;;15.23;10.30;;;;;;;17.08;86.89;99535.03;4212102;28;20249;-70
2023/07/22 04:41:56;;;;;;;15.77;11.07;;;;;;;16.96;87.60;99545.78;4218467;28;20351;-68
2023/07/22 04:44:23;;;;;;;17.53;10.40;;;;;;;17.01;88.03;99546.00;4224711;28;23528;-67
2023/07/22 04:46:50;;;;;;;12.03;9.67;;;;;;;17.20;86.95;99547.03;4215815;28;20347;-67
2023/07/22 04:49:17;;;;;;;17.40;10.70;;;;;;;17.00;88.02;99548.94;4217839;28;20427;-68
2023/07/22 04:51:45;;;;;;;17.10;10.70;;;;;;;16.97;88.12;99547.47;4226413;28;20240;-68
2023/07/22 04:54:12;;;;;;;17.50;11.37;;;;;;;16.94;88.37;99550.63;4216759;28;25241;-66
2023/07/22 04:56:39;;;;;;;19.17;11.63;;;;;;;16.92;88.52;99556.28;4215317;28;20232;-69
2023/07/22 04:59:06;;;;;;;15.93;11.00;;;;;;;16.95;88.27;99558.63;4225624;28;20552;-69
2023/07/22 05:01:32;;;;;;;18.87;12.03;;;;;;;16.86;88.99;99568.03;4215047;28;20261;-67
2023/07/22 05:03:59;;;;;;;17.43;11.77;;;;;;;16.95;88.57;99587.88;4207595;28;20757;-68
2023/07/22 05:06:28;;;;;;;19.83;11.47;;;;;;;16.97;88.28;99582.19;4211350;28;20364;-68
2023/07/22 05:08:55;;;;;;;17.30;11.60;;;;;;;16.87;88.67;99583.41;4212523;28;20227;-67
2023/07/22 05:11:23;;;;;;;16.10;10.63;;;;;;;16.86;89.08;99589.91;4215972;28;20244;-66
2023/07/22 05:13:50;;;;;;;12.73;10.13;;;;;;;16.96;88.79;99581.31;4226273;28;20316;-67
2023/07/22 05:16:17;;;;;;;17.17;11.53;;;;;;;16.84;88.75;99586.56;4220662;28;21785;-68
2023/07/22 05:18:45;;;;;;;16.43;11.20;;;;;;;16.78;88.62;99596.44;4246721;28;20300;-67
2023/07/22 05:21:12;;;;;;;16.73;10.90;;;;;;;16.77;89.10;99599.34;4212151;28;20238;-71
2023/07/22 05:23:39;;;;;;;17.60;10.50;;;;;;;16.84;87.95;99602.97;4213560;28;20456;-67
2023/07/22 05:26:06;;;;;;;18.67;10.93;;;;;;;16.65;88.39;99596.44;4210933;28;20228;-67
2023/07/22 05:28:32;;;;;;;14.40;11.03;;;;;;;16.82;88.20;99598.75;4220335;28;20286;-68
2023/07/22 05:30:59;;;;;;;15.47;10.87;;;;;;;16.70;88.29;99598.50;4210551;28;20225;-70
2023/07/22 05:33:26;;;;;;;16.47;10.87;;;;;;;16.59;89.01;99599.97;4211707;28;26436;-69
2023/07/22 05:35:53;;;;;;;16.97;11.37;;;;;;;16.55;89.65;99601.44;4216658;28;21150;-69
2023/07/22 05:38:19;;;;;;;17.83;11.70;;;;;;;16.68;89.36;99596.00;4208500;28;20253;-65
2023/07/22 05:40:46;;;;;;;15.87;10.50;;;;;;;16.73;88.38;99598.09;4212095;28;20233;-67
2023/07/22 05:43:13;;;;;;;14.67;10.37;;;;;;;16.71;88.33;99598.31;4213698;28;20304;-67
2023/07/22 05:45:39;;;;;;;15.43;10.63;;;;;;;16.80;87.94;99590.75;4208281;28;20250;-66
2023/07/22 05:48:06;;;;;;;20.23;10.13;;;;;;;16.93;87.30;99598.16;4207969;28;23832;-69
2023/07/22 05:50:33;;;;;;;17.77;10.20;;;;;;;17.02;86.42;99602.38;4213222;28;20520;-68
2023/07/22 05:52:59;;;;;;;15.40;9.40;;;;;;;16.97;86.54;99604.88;4218260;28;20231;-66
2023/07/22 05:55:26;;;;;;;15.67;10.07;;;;;;;16.91;86.51;99602.97;4201404;28;20986;-68
2023/07/22 05:57:53;;;;;;;15.20;9.53;;;;;;;16.89;86.54;99602.31;4213303;28;20937;-71
2023/07/22 06:00:20;;;;;;;13.80;8.53;;;;;;;17.03;85.98;99601.28;4208632;28;20230;-69
2023/07/22 06:02:48;;;;;;;11.37;8.70;;;;;;;17.08;85.58;99606.13;4205460;28;20307;-66
2023/07/22 06:05:15;;;;;;;12.37;9.00;;;;;;;17.11;86.25;99595.63;4207529;28;21884;-66
2023/07/22 06:07:41;;;;;;;11.80;8.47;;;;;;;17.15;85.92;99611.63;4219033;28;20295;-68
2023/07/22 06:10:08;;;;;;;14.60;8.80;;;;;;;17.33;84.50;99598.16;4219866;28;20308;-68
2023/07/22 06:12:35;;;;;;;11.23;8.13;;;;;;;17.72;83.11;99604.56;4206386;28;20228;-66
2023/07/22 06:15:02;;;;;;;12.93;7.50;;;;;;;17.94;81.95;99593.31;4219384;28;20267;-71
2023/07/22 06:17:29;;;;;;;10.53;7.30;;;;;;;18.10;81.86;99604.88;4211669;28;20239;-68
2023/07/22 06:19:55;;;;;;;10.20;7.17;;;;;;;18.37;79.93;99598.22;4214219;28;20233;-67
2023/07/22 06:22:22;;;;;;;11.73;7.30;;;;;;;18.16;79.60;99599.38;4213298;28;20314;-70
2023/07/22 06:24:48;;;;;;;13.73;7.97;;;;;;;18.28;79.98;99602.28;4208471;28;20346;-67
2023/07/22 06:27:15;;;;;;;10.37;7.47;;;;;;;18.61;78.46;99598.50;4209381;28;20272;-69
2023/07/22 06:29:42;;;;;;;11.83;7.03;;;;;;;18.67;78.30;99594.88;4211594;28;20232;-68
2023/07/22 06:32:08;;;;;;;8.93;6.80;;;;;;;18.87;77.71;99601.28;4213029;28;20238;-66
2023/07/22 06:34:35;;;;;;;10.43;6.33;;;;;;;18.70;77.79;99601.81;4215505;28;20245;-67
2023/07/22 06:37:01;;;;;;;10.07;6.20;;;;;;;18.76;76.54;99600.09;4218041;28;20538;-68
2023/07/22 06:39:28;;;;;;;9.10;4.87;;;;;;;18.67;74.60;99616.81;4245156;28;20565;-67
2023/07/22 06:41:55;;;;;;;7.57;4.87;;;;;;;18.75;72.89;99612.13;4215103;28;22987;-67
2023/07/22 06:44:21;;;;;;;6.80;4.30;;;;;;;18.74;73.11;99608.53;4210103;28;20266;-68
2023/07/22 06:46:48;;;;;;;9.50;4.27;;;;;;;19.17;70.98;99604.22;4209389;28;20986;-67
2023/07/22 06:49:14;;;;;;;5.10;4.17;;;;;;;18.80;72.53;99610.41;4228563;28;25699;-66
2023/07/22 06:51:41;;;;;;;6.67;3.93;;;;;;;18.84;71.53;99616.28;4197427;28;20444;-66
2023/07/22 06:54:07;;;;;;;8.20;3.97;;;;;;;18.79;72.03;99622.44;4213227;28;20232;-65
2023/07/22 06:56:34;;;;;;;8.17;4.60;;;;;;;19.20;70.83;99624.88;4214661;28;20306;-68
2023/07/22 06:59:01;;;;;;;6.33;3.90;;;;;;;19.12;70.51;99621.34;4214731;28;21151;-68
2023/07/22 07:01:27;;;;;;;8.67;3.73;;;;;;;19.51;69.07;99626.72;4207726;28;20233;-68
2023/07/22 07:03:54;;;;;;;9.90;3.43;;;;;;;19.37;68.65;99623.25;4214863;28;20256;-66
2023/07/22 07:06:21;;;;;;;7.10;3.40;;;;;;;18.94;69.80;99635.84;4206919;28;20631;-67
2023/07/22 07:08:48;;;;;;;7.33;3.40;;;;;;;19.08;69.89;99633.84;4205803;28;21218;-68
2023/07/22 07:11:15;;;;;;;5.30;3.47;;;;;;;19.23;69.64;99638.16;4225970;28;20240;-69
2023/07/22 07:13:42;;;;;;;5.67;3.60;;;;;;;19.34;69.03;99636.59;4220667;28;20237;-68
2023/07/22 07:16:26;;;;;;;6.47;3.47;;;;;;;19.20;70.00;99633.09;4209558;28;21175;-68
2023/07/22 07:18:54;;;;;;;4.93;3.77;;;;;;;19.22;68.45;99648.28;4203721;28;20378;-67
2023/07/22 07:21:22;;;;;;;3.90;2.83;;;;;;;19.31;68.38;99637.88;4217988;28;21002;-72
2023/07/22 07:23:48;;;;;;;4.83;3.47;;;;;;;19.42;68.17;99655.50;4198919;28;20240;-74
2023/07/22 07:26:15;;;;;;;5.63;3.63;;;;;;;19.49;68.73;99648.06;4221264;28;20275;-71
2023/07/22 07:28:42;;;;;;;7.43;3.63;;;;;;;19.73;69.24;99651.00;4252460;28;20268;-71
2023/07/22 07:31:10;;;;;;;6.77;3.60;;;;;;;20.17;65.89;99651.78;4241337;28;20248;-72
2023/07/22 07:33:36;;;;;;;5.23;3.17;;;;;;;21.16;62.84;99641.53;4217192;28;20474;-71
2023/07/22 07:36:03;;;;;;;6.73;3.20;;;;;;;21.58;61.12;99662.66;4215753;28;20284;-53
2023/07/22 07:38:30;;;;;;;4.33;2.30;;;;;;;21.65;58.88;99666.13;4217072;28;20312;-50
2023/07/22 07:41:00;;;;;;;3.53;2.37;;;;;;;21.32;59.47;99657.34;4208168;28;20304;-74
2023/07/22 07:43:27;;;;;;;5.53;2.63;;;;;;;21.74;58.72;99658.38;4213852;28;20997;-73
2023/07/22 07:46:21;;;;;;;6.93;2.60;;;;;;;21.95;59.34;99654.97;4242965;28;20410;-69
2023/07/22 07:48:49;;;;;;;5.70;2.30;;;;;;;22.18;57.25;99661.53;4243975;28;20225;-69
2023/07/22 07:51:17;;;;;;;4.30;2.10;;;;;;;21.69;57.76;99670.91;4214906;28;20239;-70
2023/07/22 07:53:46;;;;;;;2.67;1.83;;;;;;;21.44;59.69;99671.13;4221160;28;21096;-71
2023/07/22 07:56:14;;;;;;;5.53;2.73;;;;;;;21.61;57.56;99676.78;4222225;28;22717;-72
2023/07/22 07:58:40;;;;;;;8.10;2.37;;;;;;;21.38;57.41;99677.59;4255198;28;20620;-70
2023/07/22 08:01:07;;;;;;;7.40;2.40;;;;;;;21.57;57.09;99681.13;4228305;28;20271;-70
2023/07/22 08:03:35;;;;;;;5.40;2.10;;;;;;;21.75;57.50;99673.81;4214394;28;21541;-70
2023/07/22 08:06:02;;;;;;;5.63;2.27;;;;;;;21.93;56.35;99678.34;4223860;28;20229;-69
2023/07/22 08:08:29;;;;;;;3.57;2.00;;;;;;;21.73;55.91;99681.47;4221443;28;20291;-72
2023/07/22 08:11:15;;;;;;;5.17;2.03;;;;;;;21.94;55.42;99685.53;4299951;28;20237;-72
2023/07/22 08:13:43;;;;;;;8.00;2.40;;;;;;;22.09;54.75;99694.13;4422683;28;20310;-70
2023/07/22 08:16:12;;;;;;;9.83;2.20;;;;;;;21.95;56.05;99693.56;4355755;28;21910;-70
2023/07/22 08:18:39;;;;;;;3.43;1.80;;;;;;;22.68;50.79;99701.47;4209384;28;20232;-73
2023/07/22 08:21:07;;;;;;;4.13;2.00;;;;;;;22.25;51.61;99700.81;4241705;28;20232;-70
2023/07/22 08:23:34;;;;;;;6.57;1.97;;;;;;;22.32;51.85;99718.06;4217175;28;22004;-69
2023/07/22 08:26:00;;;;;;;4.90;2.27;;;;;;;22.29;51.27;99707.50;4210885;28;20335;-69
2023/07/22 08:28:27;;;;;;;4.90;1.80;;;;;;;22.24;51.69;99706.59;4221243;28;20564;-71
2023/07/22 08:30:55;;;;;;;6.10;1.83;;;;;;;22.00;52.58;99709.38;4220626;28;24163;-68
2023/07/22 08:33:24;;;;;;;5.17;1.50;;;;;;;22.48;51.21;99707.41;4214585;28;20275;-69
2023/07/22 08:36:06;;;;;;;3.97;1.60;;;;;;;22.53;51.99;99714.94;4206906;28;24134;-72
2023/07/22 08:38:33;;;;;;;3.00;1.70;;;;;;;22.32;50.28;99717.22;4216355;28;21659;-68
2023/07/22 08:41:00;;;;;;;6.20;1.60;;;;;;;22.46;49.79;99713.16;4221841;28;20422;-69
2023/07/22 08:43:28;;;;;;;8.47;2.00;;;;;;;21.87;51.50;99726.13;4226611;28;20228;-70
2023/07/22 08:45:57;;;;;;;4.37;2.17;;;;;;;21.66;52.74;99726.50;4205182;28;20237;-69
2023/07/22 08:48:26;;;;;;;4.20;1.70;;;;;;;21.88;52.58;99723.16;4202914;28;23056;-70
2023/07/22 08:51:03;;;;;;;5.77;1.90;;;;;;;22.04;53.64;99727.09;4205898;28;20466;-69
2023/07/22 08:53:30;;;;;;;2.37;1.63;;;;;;;22.31;51.28;99732.09;4217283;28;20232;-70
2023/07/22 08:55:57;;;;;;;5.53;1.90;;;;;;;21.68;52.08;99729.84;4210578;28;21137;-70
2023/07/22 08:58:29;;;;;;;4.87;1.60;;;;;;;21.68;52.94;99729.84;4221625;28;22216;-70
2023/07/22 09:00:56;;;;;;;8.30;2.73;;;;;;;21.81;52.90;99738.97;4219949;28;22277;-70
2023/07/22 09:03:23;;;;;;;2.33;1.57;;;;;;;21.67;54.14;99741.09;4212607;28;20271;-70
2023/07/22 09:05:50;;;;;;;4.70;2.10;;;;;;;21.79;53.53;99741.13;4219706;28;21209;-71
2023/07/22 09:08:17;;;;;;;5.60;2.37;;;;;;;22.09;53.61;99740.16;4227461;28;20632;-72
2023/07/22 09:10:44;;;;;;;3.70;2.17;;;;;;;22.14;52.59;99738.34;4221031;28;20359;-69
2023/07/22 09:13:13;;;;;;;3.20;1.80;;;;;;;22.28;52.59;99729.81;4222869;28;20586;-71
2023/07/22 09:15:40;;;;;;;5.63;2.17;;;;;;;22.31;53.33;99735.69;4241229;28;20266;-70
2023/07/22 09:18:06;;;;;;;6.23;2.13;;;;;;;22.39;53.01;99741.94;4220010;28;21109;-70
2023/07/22 09:20:34;;;;;;;5.07;2.37;;;;;;;22.50;53.13;99737.47;4209361;28;20362;-69
2023/07/22 09:23:00;;;;;;;4.23;2.17;;;;;;;22.51;53.89;99739.97;4209902;28;20248;-74
2023/07/22 09:25:40;;;;;;;5.10;2.27;;;;;;;22.56;51.82;99733.75;4215291;28;20318;-73
2023/07/22 09:28:07;;;;;;;3.97;2.03;;;;;;;22.63;52.36;99738.06;4228321;28;20243;-75
2023/07/22 09:30:38;;;;;;;4.50;2.20;;;;;;;22.80;51.67;99748.31;4197522;28;23439;-72
2023/07/22 09:33:07;;;;;;;10.00;2.53;;;;;;;22.76;52.10;99736.94;4215937;28;20459;-75
2023/07/22 09:35:48;;;;;;;4.93;1.70;;;;;;;22.14;51.81;99741.13;4219784;28;20240;-72
2023/07/22 09:38:15;;;;;;;5.87;1.67;;;;;;;22.40;51.00;99738.94;4208802;28;20342;-73
2023/07/22 09:40:42;;;;;;;5.80;1.80;;;;;;;22.52;51.79;99736.16;4215337;28;20624;-70
2023/07/22 09:43:10;;;;;;;4.93;1.80;;;;;;;22.28;50.56;99752.72;4214075;28;20236;-72
2023/07/22 09:45:40;;;;;;;4.23;1.83;;;;;;;22.18;51.37;99747.00;4213893;28;20240;-72
2023/07/22 09:48:08;;;;;;;3.10;2.00;;;;;;;22.26;52.11;99745.75;4224205;28;20236;-74
2023/07/22 09:50:36;;;;;;;5.47;1.80;;;;;;;22.18;50.98;99755.25;4223043;28;20237;-73
2023/07/22 09:53:03;;;;;;;3.00;1.70;;;;;;;21.95;50.59;99753.31;4222669;28;20293;-70
2023/07/22 09:55:31;;;;;;;2.97;1.60;;;;;;;22.37;50.18;99755.94;4214577;28;20388;-70
2023/07/22 09:58:03;;;;;;;2.30;1.70;;;;;;;22.47;49.96;99755.34;4218240;28;20247;-70
2023/07/22 10:00:31;;;;;;;2.67;1.40;;;;;;;22.00;47.95;99767.25;4213529;28;20245;-73
2023/07/22 10:02:59;;;;;;;3.67;1.20;;;;;;;22.22;48.01;99770.22;4207699;28;22312;-70
2023/07/22 10:05:27;;;;;;;3.20;1.33;;;;;;;22.25;48.40;99772.50;4216600;28;21149;-70
2023/07/22 10:07:56;;;;;;;3.93;1.40;;;;;;;22.10;48.49;99775.72;4227602;28;21007;-74
2023/07/22 10:11:37;;;;;;;3.17;1.40;;;;;;;22.46;47.41;99773.84;4270988;28;20566;-71
2023/07/22 10:14:05;;;;;;;3.03;1.33;;;;;;;22.61;46.95;99769.72;4322811;28;21286;-69
2023/07/22 10:16:32;;;;;;;3.33;1.20;;;;;;;22.76;49.10;99777.47;4276267;28;21183;-68
2023/07/22 10:19:00;;;;;;;1.67;1.13;;;;;;;22.99;46.89;99772.94;4357854;28;20518;-67
2023/07/22 10:21:28;;;;;;;6.00;2.17;;;;;;;22.73;47.26;99762.25;4280565;28;21277;-69
2023/07/22 10:23:57;;;;;;;2.50;1.60;;;;;;;22.97;46.97;99770.44;4229148;28;20323;-69
2023/07/22 10:26:24;;;;;;;2.70;1.30;;;;;;;22.88;46.44;99767.25;4230577;28;20241;-71
2023/07/22 10:29:11;;;;;;;1.90;1.13;;;;;;;22.94;46.00;99760.75;4258280;28;20987;-71
2023/07/22 10:31:38;;;;;;;4.13;1.40;;;;;;;23.29;44.96;99761.69;4238162;28;20236;-69
2023/07/22 10:34:05;;;;;;;4.30;1.37;;;;;;;23.40;45.47;99757.19;4233476;28;20326;-69
2023/07/22 10:36:31;;;;;;;3.17;1.40;;;;;;;23.22;44.14;99756.31;4221018;28;20242;-70
2023/07/22 10:38:59;;;;;;;4.53;1.33;;;;;;;22.51;44.83;99766.75;4240549;28;20607;-69
2023/07/22 10:41:30;;;;;;;3.37;1.60;;;;;;;22.22;47.01;99772.97;4226158;28;21279;-70
2023/07/22 10:43:59;;;;;;;9.97;1.40;;;;;;;21.92;47.74;99782.22;4221705;28;20256;-69
2023/07/22 10:46:40;;;;;;;4.83;1.53;;;;;;;21.74;48.55;99782.31;4221652;28;20235;-68
2023/07/22 10:49:10;;;;;;;2.70;1.33;;;;;;;21.98;47.27;99772.97;4225570;28;21829;-69
2023/07/22 10:51:37;;;;;;;2.60;1.73;;;;;;;22.10;48.32;99772.97;4250470;28;20236;-68
2023/07/22 10:54:11;;;;;;;3.03;1.33;;;;;;;21.99;47.49;99779.34;4223170;28;22816;-70
2023/07/22 10:56:38;;;;;;;4.80;1.60;;;;;;;22.36;46.79;99767.22;4219587;28;21646;-69
2023/07/22 10:59:05;;;;;;;2.63;1.30;;;;;;;22.40;47.12;99772.03;4254779;28;20403;-69
2023/07/22 11:01:32;;;;;;;2.90;1.43;;;;;;;22.37;47.63;99768.88;4216967;28;21297;-68
2023/07/22 11:04:17;;;;;;;3.70;1.53;;;;;;;22.24;47.23;99775.50;4239647;28;20244;-70
2023/07/22 11:06:43;;;;;;;3.67;1.70;;;;;;;22.57;46.74;99774.91;4220282;28;20227;-69
2023/07/22 11:09:34;;;;;;;4.97;1.77;;;;;;;22.91;44.80;99771.44;4229455;28;20334;-70
2023/07/22 11:12:01;;;;;;;2.33;1.30;;;;;;;22.62;44.48;99783.28;4238358;28;20245;-71
2023/07/22 11:14:50;;;;;;;3.63;1.30;;;;;;;22.34;45.18;99781.25;4225338;28;20311;-70
2023/07/22 11:17:31;;;;;;;4.57;1.40;;;;;;;22.20;45.80;99786.19;4228209;28;20345;-69
2023/07/22 11:20:00;;;;;;;5.17;1.20;;;;;;;22.21;45.75;99784.25;4238892;28;21012;-72
2023/07/22 11:22:29;;;;;;;3.17;1.33;;;;;;;22.74;45.82;99774.09;4225771;28;21486;-72
2023/07/22 11:24:59;;;;;;;1.93;1.10;;;;;;;23.07;44.29;99772.56;4221419;28;20233;-70
2023/07/22 11:27:26;;;;;;;3.10;1.70;;;;;;;23.04;45.46;99782.19;4219373;28;20867;-72
2023/07/22 11:29:52;;;;;;;4.70;1.20;;;;;;;23.02;45.41;99775.22;4215477;28;20308;-73
2023/07/22 11:32:22;;;;;;;6.77;1.70;;;;;;;23.31;45.63;99783.53;4221861;28;20276;-71
2023/07/22 11:34:52;;;;;;;4.43;1.50;;;;;;;23.14;46.07;99780.72;4216341;28;20233;-71